SAME Airport Information

Runway Information
Runway 18 Length 9301 ft width 177 ft
Elevation 2290 ft Threshold 0 ft Heading 181
Runway 36 Length 9301 ft Width 177 ft
Elevation 2310 ft Threshold 0 ft Heading 1
Airport Frequencies
Type ATIS Name ATIS Frequency 114.9 MHZ
Type GND Name GND Frequency 121.95 MHZ
Type TCA Name MENDOZA CO Frequency 124.2 MHZ
Type TWR Name MENDOZA AP Frequency 119.9 MHZ
Airport Navaids
Type VOR-DME Name Mendoza Frequency 114900 KHZ
Airport Weather Information & NOTAM
ADDS - METARS form results

(0134 UTC 19 August 2018)
 
METAR text: SAME 190100Z 18004KT 9999 OVC040 09/00 Q1029
Conditions at: SAME (MENDOZA/EL PLUME, AR) observed 0100 UTC 19 August 2018
Temperature: 9.0°C (48°F)
Dewpoint: 0.0°C (32°F) [RH = 53%]
Pressure (altimeter): 30.38 inches Hg (1029.0 mb)
Winds: from the S (180 degrees) at 5 MPH (4 knots; 2.1 m/s)
Visibility: 6 or more miles (10+ km)
Ceiling: 4000 feet AGL
Clouds: overcast cloud deck at 4000 feet AGL
Weather: no significant weather observed at this time